createdAt,value
2018-08-10T00:05:01.673Z,65.43
2018-08-10T00:10:09.063Z,65.09
2018-08-10T00:15:14.130Z,65.11
2018-08-10T00:20:18.903Z,67.11
2018-08-10T00:25:23.641Z,66.45
2018-08-10T00:30:28.397Z,66.25
2018-08-10T00:35:33.239Z,66.00
2018-08-10T00:40:38.072Z,65.95
2018-08-10T00:45:42.895Z,65.02
2018-08-10T00:50:47.674Z,65.55
2018-08-10T00:55:52.434Z,65.56
2018-08-10T01:00:57.195Z,65.14
2018-08-10T01:06:02.007Z,64.22
2018-08-10T01:11:06.779Z,64.65
2018-08-10T01:16:11.562Z,64.86
2018-08-10T01:21:16.538Z,63.82
2018-08-10T01:26:21.324Z,64.87
2018-08-10T01:31:26.220Z,64.36
2018-08-10T01:36:30.963Z,64.50
2018-08-10T01:41:35.704Z,64.90
2018-08-10T01:46:40.400Z,65.21
2018-08-10T01:51:45.121Z,65.57
2018-08-10T01:56:49.857Z,66.27
2018-08-10T02:01:54.622Z,66.08
2018-08-10T02:06:59.339Z,64.83
2018-08-10T02:12:04.095Z,65.04
2018-08-10T02:17:08.962Z,63.45
2018-08-10T02:22:13.749Z,63.42
2018-08-10T02:27:18.464Z,63.09
2018-08-10T02:32:23.209Z,62.99
2018-08-10T02:37:28.052Z,64.29
2018-08-10T02:42:32.784Z,65.42
2018-08-10T02:47:37.465Z,65.07
2018-08-10T02:52:42.361Z,65.77
2018-08-10T02:57:47.055Z,66.36
2018-08-10T03:02:52.061Z,66.71
2018-08-10T03:07:56.775Z,67.05
2018-08-10T03:13:01.424Z,67.42
2018-08-10T03:18:06.848Z,67.70
2018-08-10T03:23:11.580Z,68.61
2018-08-10T03:28:18.274Z,67.43
2018-08-10T03:33:23.060Z,67.99
2018-08-10T03:38:27.913Z,67.50
2018-08-10T03:43:32.650Z,67.87
2018-08-10T03:48:37.390Z,68.57
2018-08-10T03:53:42.313Z,68.43
2018-08-10T03:58:47.016Z,68.26
2018-08-10T04:03:51.904Z,68.24
2018-08-10T04:08:56.603Z,67.46
2018-08-10T04:14:01.552Z,67.87
2018-08-10T04:19:06.330Z,68.19
2018-08-10T04:24:11.143Z,67.61
2018-08-10T04:29:15.891Z,67.02
2018-08-10T04:34:20.716Z,66.36
2018-08-10T04:39:25.512Z,65.32
2018-08-10T04:44:30.334Z,65.13
2018-08-10T04:49:35.055Z,60.65
2018-08-10T04:54:39.783Z,60.05
2018-08-10T04:59:44.595Z,59.34
2018-08-10T05:04:49.293Z,57.62
2018-08-10T05:09:54.056Z,54.01
2018-08-10T05:14:58.967Z,53.82
2018-08-10T05:20:03.795Z,52.41
2018-08-10T05:25:08.579Z,50.83
2018-08-10T05:30:13.346Z,53.38
2018-08-10T05:35:18.343Z,51.13
2018-08-10T05:40:23.867Z,48.97
2018-08-10T05:45:28.752Z,47.16
2018-08-10T05:50:33.368Z,48.18
2018-08-10T05:55:38.020Z,49.84
2018-08-10T06:00:42.905Z,49.95
2018-08-10T06:05:47.541Z,51.08
2018-08-10T06:10:52.208Z,49.47
2018-08-10T06:15:56.989Z,47.59
2018-08-10T06:21:01.668Z,49.01
2018-08-10T06:26:06.592Z,50.98
2018-08-10T06:31:11.289Z,50.71
2018-08-10T06:36:16.047Z,52.81
2018-08-10T06:41:20.730Z,51.39
2018-08-10T06:46:25.525Z,52.10
2018-08-10T06:51:30.261Z,51.76
2018-08-10T06:56:35.075Z,53.39
2018-08-10T07:01:39.892Z,52.91
2018-08-10T07:06:44.508Z,50.85
2018-08-10T07:11:49.253Z,50.93
2018-08-10T07:16:54.060Z,51.15
2018-08-10T07:21:58.835Z,51.60
2018-08-10T07:27:03.643Z,50.03
2018-08-10T07:32:08.483Z,50.23
2018-08-10T07:37:13.197Z,50.13
2018-08-10T07:42:18.069Z,49.19
2018-08-10T07:47:22.925Z,46.88
2018-08-10T07:52:27.590Z,47.66
2018-08-10T07:57:32.428Z,47.71
2018-08-10T08:02:37.707Z,46.17
2018-08-10T08:07:42.363Z,45.27
2018-08-10T08:12:47.207Z,45.56
2018-08-10T08:17:52.051Z,46.62
2018-08-10T08:23:05.180Z,44.40
2018-08-10T08:28:10.004Z,45.03
2018-08-10T08:33:14.803Z,44.64
2018-08-10T08:38:36.252Z,41.17
2018-08-10T08:45:58.357Z,41.82
2018-08-10T08:51:04.618Z,41.17
2018-08-10T08:56:12.400Z,39.04
2018-08-10T09:01:17.769Z,39.21
2018-08-10T09:06:22.443Z,41.02
2018-08-10T09:11:27.308Z,39.88
2018-08-10T09:16:32.120Z,40.38
2018-08-10T09:21:37.009Z,38.49
2018-08-10T09:26:41.984Z,38.46
2018-08-10T09:31:46.863Z,38.99
2018-08-10T09:36:51.706Z,35.77
2018-08-10T09:41:56.505Z,36.66
2018-08-10T09:47:01.970Z,36.48
2018-08-10T09:52:08.455Z,35.63
2018-08-10T09:57:15.478Z,34.94
2018-08-10T10:02:22.086Z,34.67
2018-08-10T10:07:26.847Z,34.95
2018-08-10T10:12:31.605Z,35.77
2018-08-10T10:17:37.184Z,36.42
2018-08-10T10:22:42.292Z,36.99
2018-08-10T10:27:47.152Z,36.46
2018-08-10T10:32:53.117Z,38.26
2018-08-10T10:37:57.862Z,36.89
2018-08-10T10:43:02.678Z,35.95
2018-08-10T10:48:07.985Z,35.25
2018-08-10T10:53:12.780Z,34.37
2018-08-10T10:58:17.518Z,34.54
2018-08-10T11:03:22.437Z,33.48
2018-08-10T11:08:27.154Z,33.75
2018-08-10T11:13:31.877Z,33.89
2018-08-10T11:18:36.535Z,34.48
2018-08-10T11:23:41.360Z,34.52
2018-08-10T11:28:46.186Z,35.21
2018-08-10T11:33:51.044Z,34.69
2018-08-10T11:38:55.802Z,35.30
2018-08-10T11:44:00.551Z,34.15
2018-08-10T11:49:10.340Z,34.03
2018-08-10T11:54:15.265Z,33.89
2018-08-10T11:59:20.137Z,32.37
2018-08-10T12:04:24.916Z,34.13
2018-08-10T12:09:29.735Z,35.24
2018-08-10T12:14:34.451Z,33.51
2018-08-10T12:19:39.245Z,33.54
2018-08-10T12:24:44.078Z,32.35
2018-08-10T12:29:48.865Z,31.28
2018-08-10T12:34:53.563Z,30.94
2018-08-10T12:39:58.254Z,31.99
2018-08-10T12:45:03.027Z,32.99
2018-08-10T12:50:08.423Z,31.62
2018-08-10T12:55:13.258Z,31.82
2018-08-10T13:00:18.203Z,30.12
2018-08-10T13:05:22.967Z,28.88
2018-08-10T13:10:27.874Z,30.11
2018-08-10T13:15:32.715Z,30.24
2018-08-10T13:20:37.420Z,31.20
2018-08-10T13:25:42.147Z,32.31
2018-08-10T13:30:49.356Z,29.89
2018-08-10T13:35:54.060Z,28.74
2018-08-10T13:40:58.848Z,30.56
2018-08-10T13:46:03.557Z,28.69
2018-08-10T13:51:08.279Z,29.04
2018-08-10T13:56:13.132Z,30.15
2018-08-10T14:01:18.132Z,30.05
2018-08-10T14:06:22.924Z,28.09
2018-08-10T14:11:27.934Z,30.11
2018-08-10T14:16:33.371Z,29.33
2018-08-10T14:22:17.944Z,29.35
2018-08-10T14:27:22.771Z,29.98
2018-08-10T14:32:27.597Z,30.08
2018-08-10T14:37:32.524Z,30.50
2018-08-10T14:42:38.074Z,30.54
2018-08-10T14:47:43.150Z,29.41
2018-08-10T14:52:48.008Z,29.95
2018-08-10T14:57:52.893Z,31.20
2018-08-10T15:02:57.804Z,29.71
2018-08-10T15:08:02.609Z,29.03
2018-08-10T15:13:07.558Z,29.73
2018-08-10T15:18:12.544Z,29.14
2018-08-10T15:23:17.275Z,29.63
2018-08-10T15:28:22.116Z,30.13
2018-08-10T15:33:26.948Z,29.73
2018-08-10T15:38:31.970Z,27.59
2018-08-10T15:43:36.949Z,27.69
2018-08-10T15:48:41.845Z,27.13
2018-08-10T15:53:46.965Z,28.59
2018-08-10T15:58:51.842Z,29.02
2018-08-10T16:03:56.542Z,29.54
2018-08-10T16:09:01.399Z,28.56
2018-08-10T16:14:06.335Z,29.96
2018-08-10T16:19:11.149Z,29.74
2018-08-10T16:24:16.011Z,28.91
2018-08-10T16:29:20.895Z,30.79
2018-08-10T16:34:26.174Z,31.46
2018-08-10T16:39:31.001Z,31.08
2018-08-10T16:44:35.746Z,30.12
2018-08-10T16:49:40.590Z,31.20
2018-08-10T16:54:45.390Z,31.28
2018-08-10T16:59:50.185Z,32.37
2018-08-10T17:04:54.993Z,32.90
2018-08-10T17:09:59.842Z,33.55
2018-08-10T17:15:06.589Z,33.43
2018-08-10T17:20:11.795Z,32.69
2018-08-10T17:25:19.148Z,34.67
2018-08-10T17:30:23.951Z,32.63
2018-08-10T17:35:28.709Z,35.18
2018-08-10T17:40:33.468Z,35.43
2018-08-10T17:45:40.015Z,39.21
2018-08-10T17:50:44.845Z,39.75
2018-08-10T17:55:49.712Z,40.19
2018-08-10T18:00:54.582Z,40.32
2018-08-10T18:05:59.469Z,42.76
2018-08-10T18:11:04.385Z,42.54
2018-08-10T18:16:09.291Z,43.37
2018-08-10T18:21:14.167Z,44.56
2018-08-10T18:26:18.943Z,45.14
2018-08-10T18:31:23.887Z,45.10
2018-08-10T18:36:28.895Z,45.28
2018-08-10T18:41:33.895Z,44.42
2018-08-10T18:46:39.648Z,44.58
2018-08-10T18:51:44.387Z,47.09
2018-08-10T18:56:49.275Z,46.29
2018-08-10T19:01:54.079Z,46.59
2018-08-10T19:06:58.824Z,47.86
2018-08-10T19:12:03.711Z,49.79
2018-08-10T19:17:08.603Z,49.43
2018-08-10T19:22:13.613Z,50.70
2018-08-10T19:27:18.513Z,50.92
2018-08-10T19:32:23.831Z,51.57
2018-08-10T19:37:28.761Z,52.66
2018-08-10T19:42:33.647Z,53.15
2018-08-10T19:47:38.967Z,54.88
2018-08-10T19:52:44.272Z,54.04
2018-08-10T19:57:49.063Z,56.26
2018-08-10T20:02:53.907Z,55.69
2018-08-10T20:07:58.931Z,55.90
2018-08-10T20:13:03.764Z,55.62
2018-08-10T20:18:08.629Z,56.77
2018-08-10T20:23:13.521Z,56.52
2018-08-10T20:28:18.334Z,55.94
2018-08-10T20:33:23.091Z,56.68
2018-08-10T20:38:27.797Z,56.91
2018-08-10T20:43:32.644Z,56.28
2018-08-10T20:48:37.587Z,58.11
2018-08-10T20:53:42.604Z,57.00
2018-08-10T20:58:47.464Z,58.12
2018-08-10T21:03:52.284Z,58.88
2018-08-10T21:08:57.015Z,58.34
2018-08-10T21:14:01.908Z,60.22
2018-08-10T21:19:07.035Z,60.49
2018-08-10T21:24:11.769Z,57.83
2018-08-10T21:29:16.734Z,60.00
2018-08-10T21:34:21.449Z,59.45
2018-08-10T21:39:26.293Z,60.17
2018-08-10T21:44:31.109Z,61.21
2018-08-10T21:49:35.804Z,62.78
2018-08-10T21:54:40.527Z,61.81
2018-08-10T21:59:45.222Z,63.60
2018-08-10T22:04:49.930Z,62.43
2018-08-10T22:09:54.725Z,64.06
2018-08-10T22:15:04.762Z,64.46
2018-08-10T22:20:09.590Z,65.22
2018-08-10T22:25:14.622Z,64.58
2018-08-10T22:30:19.364Z,65.23
2018-08-10T22:35:24.202Z,66.54
2018-08-10T22:40:29.016Z,66.24
2018-08-10T22:45:33.882Z,67.14
2018-08-10T22:50:38.965Z,66.68
2018-08-10T22:55:43.730Z,66.33
2018-08-10T23:00:48.655Z,67.17
2018-08-10T23:05:53.442Z,66.92
2018-08-10T23:10:58.264Z,67.22
2018-08-10T23:16:03.074Z,66.40
2018-08-10T23:21:08.161Z,67.16
2018-08-10T23:26:13.058Z,66.61
2018-08-10T23:31:17.857Z,64.84
2018-08-10T23:36:22.726Z,65.59
2018-08-10T23:41:27.522Z,65.76
2018-08-10T23:46:32.417Z,65.36
2018-08-10T23:51:37.282Z,64.75
2018-08-10T23:56:42.112Z,65.84
